createdAt,value
2016-10-09T00:00:15.007Z,923.42
2016-10-09T00:00:57.960Z,923.43
2016-10-09T00:01:40.686Z,923.43
2016-10-09T00:02:24.054Z,923.46
2016-10-09T00:03:07.631Z,923.48
2016-10-09T00:03:50.383Z,923.48
2016-10-09T00:04:33.631Z,923.49
2016-10-09T00:05:16.364Z,923.51
2016-10-09T00:05:59.791Z,923.53
2016-10-09T00:06:42.687Z,923.52
2016-10-09T00:07:25.442Z,923.54
2016-10-09T00:08:09.101Z,923.57
2016-10-09T00:08:52.676Z,923.58
2016-10-09T00:09:35.417Z,923.55
2016-10-09T00:10:18.110Z,923.59
2016-10-09T00:11:00.917Z,923.57
2016-10-09T00:11:43.679Z,923.57
2016-10-09T00:12:26.415Z,923.56
2016-10-09T00:13:09.140Z,923.57
2016-10-09T00:13:51.877Z,923.58
2016-10-09T00:14:34.590Z,923.58
2016-10-09T00:15:17.293Z,923.57
2016-10-09T00:16:00.018Z,923.59
2016-10-09T00:16:42.713Z,923.57
2016-10-09T00:17:25.507Z,923.6
2016-10-09T00:18:08.198Z,923.61
2016-10-09T00:18:50.924Z,923.6
2016-10-09T00:19:33.630Z,923.61
2016-10-09T00:20:16.390Z,923.64
2016-10-09T00:20:59.122Z,923.66
2016-10-09T00:21:41.807Z,923.66
2016-10-09T00:22:24.546Z,923.66
2016-10-09T00:23:07.277Z,923.71
2016-10-09T00:23:50.602Z,923.7
2016-10-09T00:24:34.061Z,923.69
2016-10-09T00:25:16.724Z,923.69
2016-10-09T00:25:59.990Z,923.71
2016-10-09T00:26:42.723Z,923.73
2016-10-09T00:27:26.059Z,923.73
2016-10-09T00:28:09.473Z,923.76
2016-10-09T00:28:52.224Z,923.77
2016-10-09T00:29:34.986Z,923.79
2016-10-09T00:30:17.703Z,923.78
2016-10-09T00:31:00.266Z,923.77
2016-10-09T00:31:43.164Z,923.77
2016-10-09T00:32:25.847Z,923.74
2016-10-09T00:33:08.604Z,923.77
2016-10-09T00:33:51.346Z,923.79
2016-10-09T00:34:34.015Z,923.78
2016-10-09T00:35:18.583Z,923.8
2016-10-09T00:36:02.092Z,923.81
2016-10-09T00:36:44.836Z,923.81
2016-10-09T00:37:28.128Z,923.8
2016-10-09T00:38:10.658Z,923.79
2016-10-09T00:38:53.568Z,923.85
2016-10-09T00:39:36.292Z,923.84
2016-10-09T00:40:19.010Z,923.81
2016-10-09T00:41:02.514Z,923.8
2016-10-09T00:41:45.283Z,923.81
2016-10-09T00:42:27.989Z,923.83
2016-10-09T00:43:10.716Z,923.83
2016-10-09T00:43:54.060Z,923.83
2016-10-09T00:44:36.784Z,923.82
2016-10-09T00:45:20.170Z,923.82
2016-10-09T00:46:02.874Z,923.81
2016-10-09T00:46:46.169Z,923.83
2016-10-09T00:47:28.921Z,923.82
2016-10-09T00:48:12.000Z,923.86
2016-10-09T00:48:54.450Z,923.87
2016-10-09T00:49:37.188Z,923.85
2016-10-09T00:50:19.956Z,923.87
2016-10-09T00:51:02.683Z,923.87
2016-10-09T00:51:45.425Z,923.9
2016-10-09T00:52:28.160Z,923.85
2016-10-09T00:53:11.708Z,923.89
2016-10-09T00:53:55.114Z,923.91
2016-10-09T00:54:37.799Z,923.93
2016-10-09T00:55:21.488Z,923.93
2016-10-09T00:56:04.022Z,923.93
2016-10-09T00:56:46.931Z,923.94
2016-10-09T00:57:29.661Z,923.93
2016-10-09T00:58:12.398Z,923.95
2016-10-09T00:58:56.050Z,923.92
2016-10-09T00:59:38.739Z,923.94
2016-10-09T01:00:21.512Z,923.94
2016-10-09T01:01:05.107Z,923.95
2016-10-09T01:01:47.906Z,923.95
2016-10-09T01:02:32.191Z,923.92
2016-10-09T01:03:14.910Z,923.91
2016-10-09T01:03:57.640Z,923.93
2016-10-09T01:04:40.423Z,923.9
2016-10-09T01:05:23.626Z,923.93
2016-10-09T01:06:06.377Z,923.9
2016-10-09T01:06:49.078Z,923.89
2016-10-09T01:07:31.792Z,923.9
2016-10-09T01:08:14.612Z,923.88
2016-10-09T01:08:57.245Z,923.9
2016-10-09T01:09:40.020Z,923.87
2016-10-09T01:10:23.688Z,923.87
2016-10-09T01:11:06.391Z,923.91
2016-10-09T01:11:49.146Z,923.89
2016-10-09T01:12:31.840Z,923.89
2016-10-09T01:13:14.538Z,923.89
2016-10-09T01:14:24.460Z,923.92
2016-10-09T01:15:07.698Z,923.91
2016-10-09T01:15:50.473Z,923.88
2016-10-09T01:16:33.226Z,923.9
2016-10-09T01:17:15.952Z,923.92
2016-10-09T01:17:58.705Z,923.85
2016-10-09T01:18:41.495Z,923.88
2016-10-09T01:19:24.821Z,923.89
2016-10-09T01:20:07.597Z,923.87
2016-10-09T01:20:50.319Z,923.89
2016-10-09T01:21:33.076Z,923.85
2016-10-09T01:22:15.827Z,923.86
2016-10-09T01:22:58.524Z,923.86
2016-10-09T01:23:41.211Z,923.9
2016-10-09T01:24:23.931Z,923.86
2016-10-09T01:25:06.603Z,923.86
2016-10-09T01:25:49.367Z,923.85
2016-10-09T01:26:32.060Z,923.84
2016-10-09T01:27:14.783Z,923.83
2016-10-09T01:27:58.558Z,923.84
2016-10-09T01:28:41.295Z,923.84
2016-10-09T01:29:23.993Z,923.8
2016-10-09T01:30:07.288Z,923.81
2016-10-09T01:30:49.998Z,923.83
2016-10-09T01:31:33.350Z,923.8
2016-10-09T01:32:16.039Z,923.82
2016-10-09T01:34:56.896Z,923.84
2016-10-09T01:35:39.624Z,923.84
2016-10-09T01:36:22.365Z,923.81
2016-10-09T01:37:05.067Z,923.83
2016-10-09T01:37:47.806Z,923.81
2016-10-09T01:38:30.529Z,923.84
2016-10-09T01:39:13.208Z,923.8
2016-10-09T01:40:39.422Z,923.82
2016-10-09T01:42:20.610Z,923.8
2016-10-09T01:43:46.294Z,923.84
2016-10-09T01:45:11.564Z,923.81
2016-10-09T01:46:36.751Z,923.79
2016-10-09T01:47:19.489Z,923.78
2016-10-09T01:48:02.023Z,923.83
2016-10-09T01:48:44.891Z,923.8
2016-10-09T01:49:27.580Z,923.81
2016-10-09T01:50:10.328Z,923.78
2016-10-09T01:50:53.064Z,923.78
2016-10-09T01:51:35.737Z,923.77
2016-10-09T01:52:18.604Z,923.8
2016-10-09T01:53:44.441Z,923.8
2016-10-09T01:54:27.069Z,923.81
2016-10-09T01:55:09.633Z,923.76
2016-10-09T01:55:52.217Z,923.78
2016-10-09T01:56:34.983Z,923.77
2016-10-09T01:57:17.597Z,923.78
2016-10-09T01:58:00.251Z,923.79
2016-10-09T01:58:43.037Z,923.79
2016-10-09T01:59:25.657Z,923.77
2016-10-09T02:00:08.194Z,923.79
2016-10-09T02:00:50.819Z,923.79
2016-10-09T02:01:33.514Z,923.79
2016-10-09T02:02:16.225Z,923.77
2016-10-09T02:02:58.881Z,923.76
2016-10-09T02:03:41.578Z,923.77
2016-10-09T02:04:24.195Z,923.76
2016-10-09T02:05:06.825Z,923.75
2016-10-09T02:05:49.471Z,923.75
2016-10-09T02:06:32.108Z,923.77
2016-10-09T02:07:14.753Z,923.77
2016-10-09T02:07:57.413Z,923.75
2016-10-09T02:08:40.004Z,923.76
2016-10-09T02:09:22.696Z,923.79
2016-10-09T02:10:05.249Z,923.78
2016-10-09T02:10:47.832Z,923.8
2016-10-09T02:11:27.033Z,923.81
2016-10-09T02:12:09.642Z,923.82
2016-10-09T02:12:52.280Z,923.85
2016-10-09T02:13:34.925Z,923.8
2016-10-09T02:14:17.485Z,923.8
2016-10-09T02:15:00.084Z,923.8
2016-10-09T02:15:42.635Z,923.79
2016-10-09T02:16:25.245Z,923.81
2016-10-09T02:17:07.878Z,923.77
2016-10-09T02:17:50.517Z,923.83
2016-10-09T02:18:33.154Z,923.83
2016-10-09T02:19:15.804Z,923.83
2016-10-09T02:19:58.437Z,923.83
2016-10-09T02:20:41.077Z,923.83
2016-10-09T02:21:23.652Z,923.83
2016-10-09T02:22:06.216Z,923.83
2016-10-09T02:22:48.755Z,923.83
2016-10-09T02:23:31.321Z,923.83
2016-10-09T02:24:13.914Z,923.83
2016-10-09T02:24:56.490Z,923.83
2016-10-09T02:25:39.069Z,923.83
2016-10-09T02:26:21.675Z,923.83
2016-10-09T02:27:14.742Z,923.83
2016-10-09T02:28:41.938Z,0
2016-10-09T02:29:29.985Z,0
2016-10-09T02:30:13.227Z,0
2016-10-09T02:30:56.017Z,0
2016-10-09T02:31:38.683Z,0
2016-10-09T02:32:21.425Z,0
2016-10-09T02:33:09.848Z,0
2016-10-09T02:33:52.411Z,0
2016-10-09T02:34:35.201Z,0
2016-10-09T02:35:17.926Z,0
2016-10-09T02:36:00.702Z,0
2016-10-09T02:37:26.746Z,0
2016-10-09T02:38:51.889Z,0
2016-10-09T02:39:34.531Z,0
2016-10-09T02:41:17.822Z,0
2016-10-09T02:42:00.423Z,0
2016-10-09T02:42:42.997Z,0
2016-10-09T02:43:25.589Z,0
2016-10-09T02:44:08.167Z,0
2016-10-09T02:44:53.065Z,0
2016-10-09T02:45:42.311Z,0
2016-10-09T02:46:32.275Z,0
2016-10-09T02:47:23.513Z,0
2016-10-09T02:48:06.297Z,0
2016-10-09T02:48:51.247Z,0
2016-10-09T02:49:33.825Z,0
2016-10-09T02:50:16.506Z,0
2016-10-09T02:51:06.892Z,0
2016-10-09T02:51:49.588Z,0
2016-10-09T02:52:32.202Z,0
2016-10-09T02:53:14.933Z,0
2016-10-09T02:54:56.561Z,0
2016-10-09T02:55:39.273Z,0
2016-10-09T02:56:23.850Z,0
2016-10-09T02:57:06.592Z,0
2016-10-09T02:57:49.333Z,0
2016-10-09T02:58:32.336Z,0
2016-10-09T02:59:17.046Z,0
2016-10-09T02:59:59.628Z,0
2016-10-09T03:00:44.965Z,0
2016-10-09T03:01:29.881Z,0
2016-10-09T03:02:12.677Z,0
2016-10-09T03:02:55.324Z,0
2016-10-09T03:03:38.042Z,0
2016-10-09T03:04:20.749Z,0
2016-10-09T03:05:03.418Z,0
2016-10-09T03:05:46.134Z,0
2016-10-09T03:06:28.794Z,0
2016-10-09T03:07:11.422Z,0
2016-10-09T03:07:54.190Z,0
2016-10-09T03:08:36.833Z,0
2016-10-09T03:09:19.484Z,0
2016-10-09T03:10:02.378Z,0
2016-10-09T03:10:45.950Z,0
2016-10-09T03:11:28.722Z,0
2016-10-09T03:12:15.556Z,0
2016-10-09T03:12:59.347Z,0
2016-10-09T03:13:42.695Z,0
2016-10-09T03:14:25.844Z,0
2016-10-09T03:15:12.170Z,0
2016-10-09T03:15:55.327Z,0
2016-10-09T03:16:38.109Z,0
2016-10-09T03:17:20.891Z,0
2016-10-09T03:18:03.692Z,0
2016-10-09T03:18:46.393Z,0
2016-10-09T03:19:29.088Z,0
2016-10-09T03:20:11.807Z,0
2016-10-09T03:20:54.561Z,0
2016-10-09T03:21:37.332Z,0
2016-10-09T03:22:20.053Z,0
2016-10-09T03:23:02.697Z,0
2016-10-09T03:23:45.370Z,0
2016-10-09T03:24:28.119Z,0
2016-10-09T03:25:10.831Z,0
2016-10-09T03:25:53.508Z,0
2016-10-09T03:26:36.203Z,0
2016-10-09T03:27:18.851Z,0
2016-10-09T03:28:01.510Z,0
2016-10-09T03:28:44.192Z,0
2016-10-09T03:29:26.930Z,0
2016-10-09T03:30:09.609Z,0
2016-10-09T03:30:52.308Z,0
2016-10-09T03:31:34.751Z,0
2016-10-09T03:32:17.671Z,0
2016-10-09T03:33:00.253Z,0
2016-10-09T03:33:43.066Z,0
2016-10-09T03:34:25.737Z,0
2016-10-09T03:35:08.380Z,0
2016-10-09T03:35:51.062Z,0
2016-10-09T03:37:35.886Z,0
2016-10-09T03:38:18.958Z,0
2016-10-09T03:39:01.490Z,0
2016-10-09T03:39:44.468Z,0
2016-10-09T03:40:27.298Z,0
2016-10-09T03:41:12.847Z,0
2016-10-09T03:41:56.905Z,0
2016-10-09T03:42:42.898Z,0
2016-10-09T03:43:25.802Z,0
2016-10-09T03:44:11.086Z,0
2016-10-09T03:44:56.375Z,0
2016-10-09T03:45:40.914Z,0
2016-10-09T03:46:23.533Z,0
2016-10-09T03:47:06.169Z,0
2016-10-09T03:47:49.061Z,0
2016-10-09T03:48:31.696Z,0
2016-10-09T03:49:20.470Z,0
2016-10-09T03:50:03.112Z,0
2016-10-09T03:50:45.701Z,0
2016-10-09T03:51:29.403Z,0
2016-10-09T03:52:12.088Z,0
2016-10-09T03:52:54.853Z,0
2016-10-09T03:53:37.476Z,0
2016-10-09T03:54:19.926Z,0
2016-10-09T03:55:02.695Z,0
2016-10-09T03:55:45.472Z,0
2016-10-09T03:56:28.058Z,0
2016-10-09T03:57:10.704Z,0
2016-10-09T03:57:53.359Z,0
2016-10-09T03:58:36.003Z,0
2016-10-09T03:59:18.655Z,0
2016-10-09T04:00:01.363Z,0
2016-10-09T04:00:43.999Z,0
2016-10-09T04:01:26.578Z,0
2016-10-09T04:02:09.183Z,0
2016-10-09T04:02:51.933Z,0
2016-10-09T04:03:34.539Z,0
2016-10-09T04:04:17.213Z,0
2016-10-09T04:04:59.875Z,0
2016-10-09T04:05:42.427Z,0
2016-10-09T04:06:25.170Z,0
2016-10-09T04:07:07.839Z,0
2016-10-09T04:07:50.447Z,0
2016-10-09T04:08:33.217Z,0
2016-10-09T04:09:15.835Z,0
2016-10-09T04:09:58.446Z,0
2016-10-09T04:10:41.035Z,0
2016-10-09T04:11:23.673Z,0
2016-10-09T04:12:06.291Z,0
2016-10-09T04:12:49.007Z,0
2016-10-09T04:13:31.693Z,0
2016-10-09T04:14:14.309Z,0
2016-10-09T04:14:59.958Z,0
2016-10-09T04:15:42.634Z,0
2016-10-09T04:16:25.323Z,0
2016-10-09T04:17:07.930Z,0
2016-10-09T04:17:50.494Z,0
2016-10-09T04:18:33.104Z,0
2016-10-09T04:19:15.696Z,0
2016-10-09T04:19:58.651Z,0
2016-10-09T04:20:41.503Z,0
2016-10-09T04:21:24.134Z,0
2016-10-09T04:22:06.865Z,0
2016-10-09T04:22:49.411Z,0
2016-10-09T04:23:32.058Z,0
2016-10-09T04:24:14.699Z,0
2016-10-09T04:24:57.288Z,0
2016-10-09T04:25:40.346Z,0
2016-10-09T04:26:24.185Z,0
2016-10-09T04:27:07.083Z,0
2016-10-09T04:27:49.699Z,0
2016-10-09T04:28:32.342Z,0
2016-10-09T04:29:14.953Z,0
2016-10-09T04:29:57.590Z,0
2016-10-09T04:30:40.144Z,0
2016-10-09T04:31:22.787Z,0
2016-10-09T04:32:05.410Z,0
2016-10-09T04:32:48.178Z,0
2016-10-09T04:33:30.959Z,0
2016-10-09T04:34:13.540Z,0
2016-10-09T04:34:56.212Z,0
2016-10-09T04:35:38.916Z,0
2016-10-09T04:36:21.678Z,0
2016-10-09T04:37:04.256Z,0
2016-10-09T04:37:46.840Z,0
2016-10-09T04:38:29.517Z,0
2016-10-09T04:39:12.142Z,0
2016-10-09T04:39:54.768Z,0
2016-10-09T04:40:37.404Z,0
2016-10-09T04:41:20.011Z,0
2016-10-09T04:42:02.704Z,0
2016-10-09T04:42:45.297Z,0
2016-10-09T04:43:28.468Z,0
2016-10-09T04:44:11.130Z,0
2016-10-09T04:44:53.755Z,0
2016-10-09T04:45:36.246Z,0
2016-10-09T04:46:18.965Z,0
2016-10-09T04:47:01.984Z,0
2016-10-09T04:47:44.810Z,0
2016-10-09T04:48:27.684Z,0
2016-10-09T04:49:10.314Z,0
2016-10-09T04:49:52.979Z,0
2016-10-09T04:50:35.602Z,0
2016-10-09T04:51:18.170Z,0
2016-10-09T04:52:00.722Z,0
2016-10-09T04:52:43.279Z,0
2016-10-09T04:53:25.859Z,0
2016-10-09T04:54:08.484Z,0
2016-10-09T04:54:51.083Z,0
2016-10-09T04:55:33.661Z,0
2016-10-09T04:56:16.378Z,0
2016-10-09T04:56:59.017Z,0
2016-10-09T04:57:41.567Z,0
2016-10-09T04:58:26.213Z,0
2016-10-09T04:59:08.918Z,0
2016-10-09T04:59:51.398Z,0
2016-10-09T05:00:34.176Z,0
2016-10-09T05:01:16.753Z,0
2016-10-09T05:01:59.433Z,0
2016-10-09T05:02:42.030Z,0
2016-10-09T05:03:24.652Z,0
2016-10-09T05:04:07.277Z,0
2016-10-09T05:04:49.870Z,0
2016-10-09T05:05:32.507Z,0
2016-10-09T05:06:15.101Z,0
2016-10-09T05:06:57.747Z,0
2016-10-09T05:07:40.351Z,0
2016-10-09T05:08:22.935Z,0
2016-10-09T05:09:05.574Z,0
2016-10-09T05:09:48.173Z,0
2016-10-09T05:10:30.740Z,0
2016-10-09T05:11:13.375Z,0
2016-10-09T05:11:55.784Z,0
2016-10-09T05:12:38.626Z,0
2016-10-09T05:13:21.152Z,0
2016-10-09T05:14:03.760Z,0
2016-10-09T05:14:46.382Z,0
2016-10-09T05:15:29.323Z,0
2016-10-09T05:16:11.951Z,0
2016-10-09T05:16:54.504Z,0
2016-10-09T05:17:37.106Z,0
2016-10-09T05:18:19.757Z,0
2016-10-09T05:19:02.347Z,0
2016-10-09T05:19:44.953Z,0
2016-10-09T05:20:27.368Z,0
2016-10-09T05:21:10.179Z,0
2016-10-09T05:21:52.771Z,0
2016-10-09T05:22:35.437Z,0
2016-10-09T05:23:18.049Z,0
2016-10-09T05:24:00.617Z,0
2016-10-09T05:24:43.236Z,0
2016-10-09T05:25:25.795Z,0
2016-10-09T05:26:08.352Z,0
2016-10-09T05:26:50.986Z,0
2016-10-09T05:27:33.578Z,0
2016-10-09T05:28:16.212Z,0
2016-10-09T05:28:58.921Z,0
2016-10-09T05:29:42.008Z,0
2016-10-09T05:30:24.801Z,0
2016-10-09T05:31:07.384Z,0
2016-10-09T05:31:49.956Z,0
2016-10-09T05:32:32.543Z,0
2016-10-09T05:33:15.531Z,0
2016-10-09T05:33:58.192Z,0
2016-10-09T05:34:40.768Z,0
2016-10-09T05:35:23.179Z,0
2016-10-09T05:36:06.032Z,0
2016-10-09T05:36:48.622Z,0
2016-10-09T05:37:31.232Z,0
2016-10-09T05:38:13.874Z,0
2016-10-09T05:38:56.459Z,0
2016-10-09T05:39:39.069Z,0
2016-10-09T05:40:21.829Z,0
2016-10-09T05:41:04.453Z,0
2016-10-09T05:41:47.064Z,0
2016-10-09T05:42:29.739Z,0
2016-10-09T05:43:12.368Z,0
2016-10-09T05:43:54.984Z,0
2016-10-09T05:44:37.619Z,0
2016-10-09T05:45:22.730Z,0
2016-10-09T05:46:05.439Z,0
2016-10-09T05:46:48.003Z,0
2016-10-09T05:47:30.568Z,0
2016-10-09T05:48:13.175Z,0
2016-10-09T05:48:55.726Z,0
2016-10-09T05:49:38.296Z,0
2016-10-09T05:50:20.891Z,0
2016-10-09T05:51:03.949Z,0
2016-10-09T05:51:47.926Z,0
2016-10-09T05:52:35.275Z,0
2016-10-09T05:53:29.349Z,0
2016-10-09T05:54:42.463Z,0
2016-10-09T05:56:00.600Z,0
2016-10-09T05:56:48.407Z,0
2016-10-09T05:57:30.976Z,0
2016-10-09T05:58:13.552Z,0
2016-10-09T05:58:56.118Z,0
2016-10-09T05:59:38.600Z,0
2016-10-09T06:00:21.305Z,0
2016-10-09T06:01:03.994Z,0
2016-10-09T06:01:46.390Z,0
2016-10-09T06:02:29.123Z,0
2016-10-09T06:03:11.736Z,0
2016-10-09T06:03:54.350Z,0
2016-10-09T06:04:36.988Z,0
2016-10-09T06:05:19.569Z,0
2016-10-09T06:06:02.190Z,0
2016-10-09T06:06:44.844Z,0
2016-10-09T06:07:27.391Z,0
2016-10-09T06:08:10.119Z,0
2016-10-09T06:08:52.708Z,0
2016-10-09T06:09:35.330Z,0
2016-10-09T06:10:17.993Z,0
2016-10-09T06:11:00.613Z,0
2016-10-09T06:11:43.235Z,0
2016-10-09T06:12:25.846Z,0
2016-10-09T06:13:08.465Z,0
2016-10-09T06:13:51.125Z,0
2016-10-09T06:14:33.675Z,0
2016-10-09T06:15:16.283Z,0
2016-10-09T06:15:58.989Z,0
2016-10-09T06:16:41.369Z,0
2016-10-09T06:17:24.129Z,0
2016-10-09T06:18:06.838Z,0
2016-10-09T06:18:49.503Z,0
2016-10-09T06:19:32.159Z,0
2016-10-09T06:20:14.736Z,0
2016-10-09T06:20:57.386Z,0
2016-10-09T06:21:39.957Z,0
2016-10-09T06:22:22.584Z,0
2016-10-09T06:23:05.165Z,0
2016-10-09T06:23:47.738Z,0
2016-10-09T06:24:30.394Z,0
2016-10-09T06:25:12.993Z,0
2016-10-09T06:25:55.569Z,0
2016-10-09T06:26:38.246Z,0
2016-10-09T06:27:20.803Z,0
2016-10-09T06:28:03.391Z,0
2016-10-09T06:28:45.965Z,0
2016-10-09T06:29:28.673Z,0
2016-10-09T06:30:11.238Z,0
2016-10-09T06:30:53.971Z,0
2016-10-09T06:31:36.607Z,0
2016-10-09T06:32:19.239Z,0
2016-10-09T06:33:01.885Z,0
2016-10-09T06:33:44.578Z,0
2016-10-09T06:34:27.160Z,0
2016-10-09T06:35:09.722Z,0
2016-10-09T06:35:52.333Z,0
2016-10-09T06:36:35.011Z,0
2016-10-09T06:37:17.630Z,0
2016-10-09T06:38:00.148Z,0
2016-10-09T06:38:42.848Z,0
2016-10-09T06:39:25.576Z,0
2016-10-09T06:40:08.229Z,0
2016-10-09T06:40:50.809Z,0
2016-10-09T06:41:33.441Z,0
2016-10-09T06:42:16.062Z,0
2016-10-09T06:42:59.016Z,0
2016-10-09T06:43:41.309Z,0
2016-10-09T06:44:23.921Z,0
2016-10-09T06:45:06.495Z,0
2016-10-09T06:45:49.084Z,0
2016-10-09T06:46:31.666Z,0
2016-10-09T06:47:14.518Z,0
2016-10-09T06:47:56.823Z,0
2016-10-09T06:48:39.407Z,0
2016-10-09T06:49:22.042Z,0
2016-10-09T06:50:04.696Z,0
2016-10-09T06:50:47.311Z,0
2016-10-09T06:51:29.949Z,0
2016-10-09T06:52:12.534Z,0
2016-10-09T06:52:55.156Z,0
2016-10-09T06:53:37.743Z,0
2016-10-09T06:54:20.357Z,0
2016-10-09T06:55:02.958Z,0
2016-10-09T06:55:45.597Z,0
2016-10-09T06:56:28.228Z,0
2016-10-09T06:57:10.815Z,0
2016-10-09T06:57:53.369Z,0
2016-10-09T06:58:35.994Z,0
2016-10-09T06:59:18.423Z,0
2016-10-09T07:00:01.219Z,0
2016-10-09T07:00:43.825Z,0
2016-10-09T07:01:26.417Z,0
2016-10-09T07:02:09.091Z,0
2016-10-09T07:02:51.719Z,0
2016-10-09T07:03:34.355Z,0
2016-10-09T07:04:16.941Z,0
2016-10-09T07:04:59.591Z,0
2016-10-09T07:05:42.192Z,0
2016-10-09T07:06:24.820Z,0
2016-10-09T07:07:07.444Z,0
2016-10-09T07:07:50.068Z,0
2016-10-09T07:08:32.709Z,0
2016-10-09T07:09:15.303Z,0
2016-10-09T07:09:57.947Z,0
2016-10-09T07:10:40.553Z,0
2016-10-09T07:11:23.136Z,0
2016-10-09T07:12:05.739Z,0
2016-10-09T07:12:48.394Z,0
2016-10-09T07:13:31.036Z,0
2016-10-09T07:14:13.603Z,0
2016-10-09T07:14:56.264Z,0
2016-10-09T07:15:39.528Z,0
2016-10-09T07:16:21.430Z,0
2016-10-09T07:17:04.063Z,0
2016-10-09T07:17:46.699Z,0
2016-10-09T07:18:29.233Z,0
2016-10-09T07:19:11.819Z,0
2016-10-09T07:19:54.387Z,0
2016-10-09T07:20:37.022Z,0
2016-10-09T07:21:19.626Z,0
2016-10-09T07:22:02.167Z,0
2016-10-09T07:22:44.763Z,0
2016-10-09T07:23:27.392Z,0
2016-10-09T07:24:10.033Z,0
2016-10-09T07:24:52.637Z,0
2016-10-09T07:25:35.231Z,0
2016-10-09T07:26:17.888Z,0
2016-10-09T07:27:00.456Z,0
2016-10-09T07:27:43.042Z,0
2016-10-09T07:28:25.685Z,0
2016-10-09T07:29:08.181Z,0
2016-10-09T07:29:50.900Z,0
2016-10-09T07:30:33.464Z,0
2016-10-09T07:31:16.109Z,0
2016-10-09T07:31:58.739Z,0
2016-10-09T07:32:41.275Z,0
2016-10-09T07:33:23.878Z,0
2016-10-09T07:34:06.531Z,0
2016-10-09T07:34:49.181Z,0
2016-10-09T07:35:32.243Z,0
2016-10-09T07:36:14.818Z,0
2016-10-09T07:36:57.432Z,0
2016-10-09T07:37:40.033Z,0
2016-10-09T07:38:22.479Z,0
2016-10-09T07:39:05.272Z,0
2016-10-09T07:39:47.881Z,0
2016-10-09T07:40:30.466Z,0
2016-10-09T07:41:13.037Z,0
2016-10-09T07:41:55.692Z,0
2016-10-09T07:42:38.254Z,0
2016-10-09T07:43:20.870Z,0
2016-10-09T07:44:03.463Z,0
2016-10-09T07:44:46.084Z,0
2016-10-09T07:45:28.716Z,0
2016-10-09T07:46:11.340Z,0
2016-10-09T07:46:53.990Z,0
2016-10-09T07:47:36.620Z,0
2016-10-09T07:48:19.226Z,0
2016-10-09T07:49:01.766Z,0
2016-10-09T07:49:44.416Z,0
2016-10-09T07:50:27.048Z,0
2016-10-09T07:51:09.627Z,0
2016-10-09T07:51:52.227Z,0
2016-10-09T07:52:34.800Z,0
2016-10-09T07:53:17.388Z,0
2016-10-09T07:54:00.028Z,0
2016-10-09T07:54:42.585Z,0
2016-10-09T07:55:25.280Z,0
2016-10-09T07:56:07.813Z,0
2016-10-09T07:56:50.364Z,0
2016-10-09T07:57:32.993Z,0
2016-10-09T07:58:15.633Z,0
2016-10-09T07:58:58.253Z,0
2016-10-09T07:59:40.818Z,0
2016-10-09T08:00:23.395Z,0
2016-10-09T08:01:06.015Z,0
2016-10-09T08:01:48.624Z,0
2016-10-09T08:02:31.246Z,0
2016-10-09T08:03:13.866Z,0
2016-10-09T08:03:56.457Z,0
2016-10-09T08:04:39.060Z,0
2016-10-09T08:05:21.659Z,0
2016-10-09T08:06:04.131Z,0
2016-10-09T08:06:46.907Z,0
2016-10-09T08:07:29.492Z,0
2016-10-09T08:08:12.067Z,0
2016-10-09T08:08:54.663Z,0
2016-10-09T08:09:37.263Z,0
2016-10-09T08:10:19.871Z,0
2016-10-09T08:11:02.441Z,0
2016-10-09T08:11:45.020Z,0
2016-10-09T08:12:27.649Z,0
2016-10-09T08:13:10.247Z,0
2016-10-09T08:13:52.867Z,0
2016-10-09T08:14:35.449Z,0
2016-10-09T08:15:18.085Z,0
2016-10-09T08:16:00.506Z,0
2016-10-09T08:16:43.285Z,0
2016-10-09T08:17:25.890Z,0
2016-10-09T08:18:08.544Z,0
2016-10-09T08:18:51.162Z,0
2016-10-09T08:19:33.736Z,0
2016-10-09T08:20:16.365Z,0
2016-10-09T08:20:59.026Z,0
2016-10-09T08:21:41.571Z,0
2016-10-09T08:22:24.139Z,0
2016-10-09T08:23:06.738Z,0
2016-10-09T08:23:49.359Z,0
2016-10-09T08:24:31.967Z,0
2016-10-09T08:25:14.569Z,0
2016-10-09T08:25:57.214Z,0
2016-10-09T08:26:39.865Z,0
2016-10-09T08:27:22.443Z,0
2016-10-09T08:28:05.024Z,0
2016-10-09T08:28:47.630Z,0
2016-10-09T08:29:30.234Z,0
2016-10-09T08:30:12.833Z,0
2016-10-09T08:30:55.448Z,0
2016-10-09T08:31:38.064Z,0
2016-10-09T08:32:20.645Z,0
2016-10-09T08:33:03.242Z,0
2016-10-09T08:33:45.923Z,0
2016-10-09T08:34:28.464Z,0
2016-10-09T08:35:11.097Z,0
2016-10-09T08:35:53.729Z,0
2016-10-09T08:36:36.352Z,0
2016-10-09T08:37:18.978Z,0
2016-10-09T08:38:01.620Z,0
2016-10-09T08:38:44.236Z,0
2016-10-09T08:39:26.845Z,0
2016-10-09T08:40:09.470Z,0
2016-10-09T08:40:51.980Z,0
2016-10-09T08:41:34.736Z,0
2016-10-09T08:42:17.168Z,0
2016-10-09T08:42:59.904Z,0
2016-10-09T08:43:42.549Z,0
2016-10-09T08:44:25.153Z,0
2016-10-09T08:45:07.761Z,0
2016-10-09T08:45:50.167Z,0
2016-10-09T08:46:32.989Z,0
2016-10-09T08:47:15.585Z,0
2016-10-09T08:47:58.226Z,0
2016-10-09T08:48:40.862Z,0
2016-10-09T08:49:23.478Z,0
2016-10-09T08:50:06.080Z,0
2016-10-09T08:50:48.700Z,0
2016-10-09T08:51:31.282Z,0
2016-10-09T08:52:13.870Z,0
2016-10-09T08:52:56.474Z,0
2016-10-09T08:53:39.073Z,0
2016-10-09T08:54:21.725Z,0
2016-10-09T08:55:04.319Z,0
2016-10-09T08:55:46.943Z,0
2016-10-09T08:56:29.517Z,0
2016-10-09T08:57:12.129Z,0
2016-10-09T08:57:54.707Z,0
2016-10-09T08:58:37.355Z,0
2016-10-09T08:59:19.954Z,0
2016-10-09T09:00:02.530Z,0
2016-10-09T09:00:45.080Z,0
2016-10-09T09:01:27.652Z,0
2016-10-09T09:02:10.308Z,0
2016-10-09T09:02:52.873Z,0
2016-10-09T09:03:35.416Z,0
2016-10-09T09:04:18.053Z,0
2016-10-09T09:05:00.747Z,0
2016-10-09T09:05:43.404Z,0
2016-10-09T09:06:26.026Z,0
2016-10-09T09:07:08.659Z,0
2016-10-09T09:07:51.229Z,0
2016-10-09T09:08:33.828Z,0
2016-10-09T09:09:16.329Z,0
2016-10-09T09:09:59.070Z,0
2016-10-09T09:10:41.693Z,0
2016-10-09T09:11:24.343Z,0
2016-10-09T09:12:06.897Z,0
2016-10-09T09:12:49.513Z,0
2016-10-09T09:13:32.062Z,0
2016-10-09T09:14:14.616Z,0
2016-10-09T09:14:57.273Z,0
2016-10-09T09:15:39.865Z,0
2016-10-09T09:16:22.497Z,0
2016-10-09T09:17:05.066Z,0
2016-10-09T09:17:47.679Z,0
2016-10-09T09:18:30.282Z,0
2016-10-09T09:19:12.904Z,0
2016-10-09T09:19:55.494Z,0
2016-10-09T09:20:38.091Z,0
2016-10-09T09:21:20.609Z,0
2016-10-09T09:22:03.236Z,0
2016-10-09T09:22:45.857Z,0
2016-10-09T09:23:28.443Z,0
2016-10-09T09:24:11.007Z,0
2016-10-09T09:24:53.624Z,0
2016-10-09T09:25:36.188Z,0
2016-10-09T09:26:18.761Z,0
2016-10-09T09:27:01.332Z,0
2016-10-09T09:27:43.917Z,0
2016-10-09T09:28:26.554Z,0
2016-10-09T09:29:09.163Z,0
2016-10-09T09:29:51.727Z,0
2016-10-09T09:30:34.323Z,0
2016-10-09T09:31:16.894Z,0
2016-10-09T09:31:59.493Z,0
2016-10-09T09:32:42.071Z,0
2016-10-09T09:33:24.703Z,0
2016-10-09T09:34:07.181Z,0
2016-10-09T09:34:49.889Z,0
2016-10-09T09:35:32.537Z,0
2016-10-09T09:36:15.099Z,0
2016-10-09T09:36:57.688Z,0
2016-10-09T09:37:40.275Z,0
2016-10-09T09:38:22.873Z,0
2016-10-09T09:39:05.505Z,0
2016-10-09T09:39:48.105Z,0
2016-10-09T09:40:30.667Z,0
2016-10-09T09:41:13.284Z,0
2016-10-09T09:45:18.133Z,0
2016-10-09T09:46:00.734Z,0
2016-10-09T09:46:43.393Z,0
2016-10-09T09:47:26.001Z,0
2016-10-09T09:48:51.010Z,0
2016-10-09T09:49:33.617Z,0
2016-10-09T09:50:58.492Z,0
2016-10-09T09:53:21.887Z,0
2016-10-09T09:55:02.786Z,0
2016-10-09T09:55:45.348Z,0
2016-10-09T09:57:10.264Z,0
2016-10-09T09:58:35.072Z,0
2016-10-09T09:59:17.650Z,0
2016-10-09T10:00:59.095Z,0
2016-10-09T10:01:41.688Z,0
2016-10-09T10:02:24.287Z,0
2016-10-09T10:03:49.285Z,0
2016-10-09T10:05:14.125Z,0
2016-10-09T10:05:56.753Z,0
2016-10-09T10:06:39.379Z,0
2016-10-09T10:07:22.033Z,0
2016-10-09T10:08:04.647Z,0
2016-10-09T10:08:47.195Z,0
2016-10-09T10:09:29.842Z,0
2016-10-09T10:10:12.466Z,0
2016-10-09T10:10:55.046Z,0
2016-10-09T10:11:37.666Z,0
2016-10-09T10:12:20.241Z,0
2016-10-09T10:13:02.845Z,0
2016-10-09T10:13:45.563Z,0
2016-10-09T10:14:28.118Z,0
2016-10-09T10:15:10.767Z,0
2016-10-09T10:15:53.427Z,0
2016-10-09T10:16:36.057Z,0
2016-10-09T10:17:18.665Z,0
2016-10-09T10:18:01.277Z,0
2016-10-09T10:18:43.844Z,0
2016-10-09T10:19:26.476Z,0
2016-10-09T10:20:09.084Z,0
2016-10-09T10:20:51.699Z,0
2016-10-09T10:21:34.386Z,0
2016-10-09T10:22:16.828Z,0
2016-10-09T10:22:59.625Z,0
2016-10-09T10:23:42.187Z,0
2016-10-09T10:24:24.764Z,0
2016-10-09T10:25:07.308Z,0
2016-10-09T10:25:49.890Z,0
2016-10-09T10:26:32.529Z,0
2016-10-09T10:27:15.148Z,0
2016-10-09T10:27:57.724Z,0
2016-10-09T10:28:40.384Z,0
2016-10-09T10:29:22.808Z,0
2016-10-09T10:30:05.569Z,0
2016-10-09T10:30:48.848Z,0
2016-10-09T10:31:31.513Z,0
2016-10-09T10:32:14.146Z,0